createdAt,value
2023-08-17T00:00:32.645Z,98335.66
2023-08-17T00:02:59.181Z,98342.72
2023-08-17T00:05:25.735Z,98337.88
2023-08-17T00:07:53.339Z,98332.22
2023-08-17T00:10:20.064Z,98330.84
2023-08-17T00:12:46.535Z,98324.91
2023-08-17T00:15:13.087Z,98327.06
2023-08-17T00:17:39.592Z,98326.53
2023-08-17T00:20:07.520Z,98327.59
2023-08-17T00:22:34.021Z,98320.03
2023-08-17T00:25:00.614Z,98316.78
2023-08-17T00:27:27.331Z,98317.06
2023-08-17T00:29:54.026Z,98327.59
2023-08-17T00:32:21.139Z,98319.31
2023-08-17T00:34:47.710Z,98317.41
2023-08-17T00:37:14.319Z,98313.88
2023-08-17T00:39:40.797Z,98318.50
2023-08-17T00:42:09.238Z,98310.44
2023-08-17T00:44:35.715Z,98303.47
2023-08-17T00:47:03.459Z,98315.91
2023-08-17T00:49:30.471Z,98305.88
2023-08-17T00:51:57.963Z,98306.69
2023-08-17T00:54:27.939Z,98303.44
2023-08-17T00:56:57.263Z,98302.88
2023-08-17T00:59:26.435Z,98304.22
2023-08-17T01:01:53.275Z,98291.00
2023-08-17T01:04:19.903Z,98299.13
2023-08-17T01:06:46.576Z,98305.34
2023-08-17T01:09:13.191Z,98308.06
2023-08-17T01:11:50.514Z,98304.53
2023-08-17T01:14:33.961Z,98306.16
2023-08-17T01:17:13.699Z,98311.59
2023-08-17T01:19:40.386Z,98309.69
2023-08-17T01:22:09.692Z,98298.09
2023-08-17T01:24:36.195Z,98306.69
2023-08-17T01:27:02.742Z,98296.94
2023-08-17T01:29:29.503Z,98295.59
2023-08-17T01:32:13.960Z,98292.13
2023-08-17T01:34:51.121Z,98289.66
2023-08-17T01:37:21.919Z,98285.34
2023-08-17T01:39:51.841Z,98281.59
2023-08-17T01:42:19.558Z,98282.94
2023-08-17T01:44:46.239Z,98284.84
2023-08-17T01:47:15.734Z,98285.13
2023-08-17T01:49:42.225Z,98281.88
2023-08-17T01:52:08.744Z,98285.94
2023-08-17T01:54:35.418Z,98286.72
2023-08-17T01:57:01.904Z,98280.78
2023-08-17T01:59:28.490Z,98285.13
2023-08-17T02:01:55.093Z,98277.84
2023-08-17T02:04:21.619Z,98279.97
2023-08-17T02:06:48.221Z,98279.44
2023-08-17T02:09:14.890Z,98282.66
2023-08-17T02:11:41.415Z,98279.72
2023-08-17T02:14:08.045Z,98278.38
2023-08-17T02:16:35.444Z,98276.75
2023-08-17T02:19:02.100Z,98275.13
2023-08-17T02:21:28.631Z,98265.13
2023-08-17T02:23:55.157Z,98274.81
2023-08-17T02:26:23.123Z,98272.13
2023-08-17T02:28:50.742Z,98273.22
2023-08-17T02:31:17.272Z,98262.94
2023-08-17T02:33:43.961Z,98258.38
2023-08-17T02:36:10.511Z,98259.19
2023-08-17T02:38:37.097Z,98253.53
2023-08-17T02:41:03.712Z,98255.97
2023-08-17T02:43:30.176Z,98245.72
2023-08-17T02:45:56.671Z,98248.16
2023-08-17T02:48:24.323Z,98248.13
2023-08-17T02:50:50.794Z,98252.69
2023-08-17T02:53:17.435Z,98242.19
2023-08-17T02:55:44.018Z,98249.38
2023-08-17T02:58:10.545Z,98254.44
2023-08-17T03:00:37.099Z,98261.97
2023-08-17T03:03:04.098Z,98258.97
2023-08-17T03:05:31.809Z,98257.34
2023-08-17T03:07:58.376Z,98265.13
2023-08-17T03:10:26.123Z,98258.13
2023-08-17T03:12:52.738Z,98252.16
2023-08-17T03:15:20.128Z,98255.38
2023-08-17T03:17:46.863Z,98250.19
2023-08-17T03:20:13.793Z,98254.56
2023-08-17T03:22:40.543Z,98255.69
2023-08-17T03:25:07.607Z,98258.41
2023-08-17T03:27:34.308Z,98255.97
2023-08-17T03:30:01.363Z,98250.88
2023-08-17T03:32:28.179Z,98246.84
2023-08-17T03:34:54.673Z,98254.44
2023-08-17T03:37:23.016Z,98248.19
2023-08-17T03:39:49.933Z,98251.97
2023-08-17T03:42:16.508Z,98247.34
2023-08-17T03:44:43.168Z,98252.47
2023-08-17T03:47:09.631Z,98251.09
2023-08-17T03:49:36.209Z,98254.03
2023-08-17T03:52:02.750Z,98252.69
2023-08-17T03:54:29.345Z,98253.53
2023-08-17T03:56:55.851Z,98248.59
2023-08-17T03:59:22.401Z,98252.31
2023-08-17T04:01:48.961Z,98258.31
2023-08-17T04:04:15.651Z,98250.03
2023-08-17T04:06:42.182Z,98258.41
2023-08-17T04:09:08.919Z,98261.63
2023-08-17T04:11:38.560Z,98263.25
2023-08-17T04:14:06.137Z,98257.09
2023-08-17T04:16:34.690Z,98264.38
2023-08-17T04:19:01.339Z,98264.09
2023-08-17T04:21:30.184Z,98266.03
2023-08-17T04:23:56.975Z,98260.91
2023-08-17T04:26:24.808Z,98267.66
2023-08-17T04:28:52.071Z,98266.59
2023-08-17T04:31:18.772Z,98272.19
2023-08-17T04:33:49.303Z,98273.00
2023-08-17T04:36:15.922Z,98283.19
2023-08-17T04:38:42.406Z,98277.47
2023-08-17T04:41:09.033Z,98273.50
2023-08-17T04:43:36.554Z,98273.22
2023-08-17T04:46:03.211Z,98269.16
2023-08-17T04:48:30.258Z,98276.97
2023-08-17T04:50:57.279Z,98279.63
2023-08-17T04:53:23.812Z,98285.31
2023-08-17T04:55:51.573Z,98284.81
2023-08-17T04:58:18.064Z,98284.31
2023-08-17T05:00:44.765Z,98283.00
2023-08-17T05:03:20.144Z,98284.91
2023-08-17T05:05:53.236Z,98293.25
2023-08-17T05:08:20.335Z,98291.31
2023-08-17T05:10:46.831Z,98291.06
2023-08-17T05:13:13.336Z,98288.09
2023-08-17T05:15:40.039Z,98294.25
2023-08-17T05:18:09.197Z,98289.44
2023-08-17T05:20:36.909Z,98293.78
2023-08-17T05:23:04.125Z,98291.66
2023-08-17T05:25:30.656Z,98298.69
2023-08-17T05:27:57.165Z,98302.97
2023-08-17T05:30:24.088Z,98303.81
2023-08-17T05:32:51.659Z,98298.19
2023-08-17T05:35:18.848Z,98302.81
2023-08-17T05:37:45.486Z,98309.00
2023-08-17T05:40:12.404Z,98310.91
2023-08-17T05:42:38.980Z,98310.91
2023-08-17T05:45:06.247Z,98310.94
2023-08-17T05:47:32.776Z,98312.31
2023-08-17T05:49:59.261Z,98302.31
2023-08-17T05:52:25.833Z,98306.59
2023-08-17T05:54:52.286Z,98318.22
2023-08-17T05:57:18.781Z,98326.03
2023-08-17T05:59:45.266Z,98324.47
2023-08-17T06:02:11.759Z,98326.09
2023-08-17T06:04:38.258Z,98317.97
2023-08-17T06:07:04.917Z,98315.81
2023-08-17T06:09:31.411Z,98333.63
2023-08-17T06:11:57.943Z,98328.50
2023-08-17T06:14:24.521Z,98326.88
2023-08-17T06:16:51.119Z,98323.13
2023-08-17T06:19:17.621Z,98332.06
2023-08-17T06:21:44.211Z,98343.41
2023-08-17T06:24:10.668Z,98341.56
2023-08-17T06:26:37.248Z,98345.59
2023-08-17T06:29:04.547Z,98343.19
2023-08-17T06:31:31.293Z,98342.34
2023-08-17T06:33:58.161Z,98338.53
2023-08-17T06:36:24.722Z,98321.56
2023-08-17T06:38:51.227Z,98330.22
2023-08-17T06:41:18.238Z,98334.78
2023-08-17T06:43:44.718Z,98333.19
2023-08-17T06:46:11.470Z,98335.34
2023-08-17T06:48:38.069Z,98332.09
2023-08-17T06:51:05.842Z,98323.66
2023-08-17T06:53:32.390Z,98322.84
2023-08-17T06:56:01.710Z,98321.78
2023-08-17T06:58:29.353Z,98318.59
2023-08-17T07:00:56.036Z,98317.22
2023-08-17T07:03:22.662Z,98325.00
2023-08-17T07:05:49.386Z,98337.97
2023-08-17T07:08:15.996Z,98303.19
2023-08-17T07:10:42.441Z,98343.94
2023-08-17T07:13:09.013Z,98340.47
2023-08-17T07:15:35.542Z,98347.19
2023-08-17T07:18:02.110Z,98346.59
2023-08-17T07:20:28.737Z,98341.75
2023-08-17T07:22:55.345Z,98341.16
2023-08-17T07:25:21.793Z,98347.69
2023-08-17T07:27:48.269Z,98337.44
2023-08-17T07:30:14.771Z,98352.00
2023-08-17T07:32:41.311Z,98348.25
2023-08-17T07:35:08.221Z,98342.31
2023-08-17T07:37:35.198Z,98336.66
2023-08-17T07:40:04.711Z,98339.59
2023-08-17T07:42:31.597Z,98344.19
2023-08-17T07:44:58.388Z,98339.00
2023-08-17T07:47:24.983Z,98338.16
2023-08-17T07:49:51.596Z,98341.06
2023-08-17T07:52:18.195Z,98342.09
2023-08-17T07:54:46.620Z,98340.75
2023-08-17T07:57:13.255Z,98341.50
2023-08-17T07:59:39.907Z,98340.78
2023-08-17T08:02:06.950Z,98339.78
2023-08-17T08:04:33.471Z,98334.66
2023-08-17T08:07:00.035Z,98335.75
2023-08-17T08:09:26.496Z,98336.88
2023-08-17T08:11:53.052Z,98329.78
2023-08-17T08:14:19.534Z,98333.06
2023-08-17T08:16:46.254Z,98324.31
2023-08-17T08:19:12.858Z,98329.50
2023-08-17T08:21:39.476Z,98330.28
2023-08-17T08:24:10.424Z,98329.44
2023-08-17T08:26:40.714Z,98326.47
2023-08-17T08:29:07.236Z,98327.81
2023-08-17T08:31:33.708Z,98338.03
2023-08-17T08:34:00.590Z,98329.84
2023-08-17T08:36:27.229Z,98341.69
2023-08-17T08:38:53.853Z,98335.06
2023-08-17T08:41:20.835Z,98331.56
2023-08-17T08:43:47.998Z,98336.47
2023-08-17T08:46:17.910Z,98337.03
2023-08-17T08:48:48.672Z,98337.69
2023-08-17T08:51:21.733Z,98334.06
2023-08-17T08:53:56.466Z,98329.25
2023-08-17T08:56:25.670Z,98338.59
2023-08-17T08:58:54.919Z,98337.41
2023-08-17T09:01:22.634Z,98335.94
2023-08-17T09:03:49.305Z,98322.63
2023-08-17T09:09:03.685Z,98317.16
2023-08-17T09:11:31.139Z,98319.31
2023-08-17T09:13:57.981Z,98321.50
2023-08-17T09:16:25.840Z,98317.06
2023-08-17T09:18:55.554Z,98317.97
2023-08-17T09:21:25.640Z,98314.28
2023-08-17T09:24:00.123Z,98314.09
2023-08-17T09:26:32.166Z,98319.34
2023-08-17T09:29:00.588Z,98312.59
2023-08-17T09:31:27.391Z,98315.53
2023-08-17T09:33:54.352Z,98318.13
2023-08-17T09:36:24.833Z,98317.22
2023-08-17T09:38:54.283Z,98312.97
2023-08-17T09:41:21.196Z,98313.03
2023-08-17T09:43:48.366Z,98317.50
2023-08-17T09:46:15.875Z,98321.13
2023-08-17T09:48:45.405Z,98320.19
2023-08-17T09:51:15.554Z,98302.59
2023-08-17T09:53:42.122Z,98309.09
2023-08-17T09:56:09.275Z,98315.25
2023-08-17T09:58:35.721Z,98322.06
2023-08-17T10:01:05.465Z,98310.81
2023-08-17T10:03:35.323Z,98320.22
2023-08-17T10:06:11.548Z,98312.69
2023-08-17T10:08:44.359Z,98314.59
2023-08-17T10:11:15.914Z,98319.38
2023-08-17T10:14:01.319Z,98313.72
2023-08-17T10:16:34.425Z,98319.13
2023-08-17T10:19:14.411Z,98319.66
2023-08-17T10:21:55.139Z,98320.66
2023-08-17T10:24:21.637Z,98319.38
2023-08-17T10:29:23.728Z,98313.56
2023-08-17T10:31:50.427Z,98319.81
2023-08-17T10:34:17.265Z,98309.22
2023-08-17T10:36:45.457Z,98305.16
2023-08-17T10:39:26.027Z,98302.31
2023-08-17T10:41:55.750Z,98309.06
2023-08-17T10:44:48.103Z,98304.53
2023-08-17T10:47:28.382Z,98295.41
2023-08-17T10:50:06.516Z,98294.53
2023-08-17T10:52:35.659Z,98296.41
2023-08-17T10:55:06.812Z,98290.72
2023-08-17T10:57:41.949Z,98300.88
2023-08-17T11:00:20.965Z,98297.06
2023-08-17T11:03:01.022Z,98300.69
2023-08-17T11:05:42.074Z,98312.09
2023-08-17T11:08:21.164Z,98315.72
2023-08-17T11:11:13.518Z,98325.00
2023-08-17T11:13:45.309Z,98334.66
2023-08-17T11:16:18.747Z,98337.66
2023-08-17T11:18:46.589Z,98346.09
2023-08-17T11:21:19.371Z,98343.72
2023-08-17T11:23:46.817Z,98346.38
2023-08-17T11:26:16.829Z,98336.34
2023-08-17T11:28:45.624Z,98350.56
2023-08-17T11:31:14.015Z,98352.00
2023-08-17T11:33:41.200Z,98352.97
2023-08-17T11:36:11.080Z,98365.94
2023-08-17T11:38:44.535Z,98371.25
2023-08-17T11:41:18.517Z,98369.94
2023-08-17T11:43:48.116Z,98360.41
2023-08-17T11:46:16.277Z,98359.47
2023-08-17T11:48:42.935Z,98352.56
2023-08-17T11:51:09.590Z,98352.41
2023-08-17T11:53:38.112Z,98346.34
2023-08-17T11:56:08.391Z,98343.56
2023-08-17T11:58:47.484Z,98326.13
2023-08-17T12:01:16.705Z,98326.31
2023-08-17T12:03:44.198Z,98298.00
2023-08-17T12:06:11.814Z,98290.38
2023-08-17T12:08:38.470Z,98280.81
2023-08-17T12:11:05.729Z,98288.78
2023-08-17T12:13:35.670Z,98299.38
2023-08-17T12:16:04.742Z,98305.88
2023-08-17T12:18:35.346Z,98309.91
2023-08-17T12:21:02.019Z,98303.50
2023-08-17T12:23:29.131Z,98304.13
2023-08-17T12:25:56.282Z,98298.13
2023-08-17T12:28:26.534Z,98300.97
2023-08-17T12:31:01.772Z,98289.09
2023-08-17T12:33:28.557Z,98272.28
2023-08-17T12:35:56.439Z,98275.34
2023-08-17T12:38:26.009Z,98271.16
2023-08-17T12:40:52.528Z,98265.50
2023-08-17T12:43:19.011Z,98264.09
2023-08-17T12:45:45.491Z,98260.38
2023-08-17T12:48:12.114Z,98276.66
2023-08-17T12:50:43.411Z,98282.91
2023-08-17T12:53:10.422Z,98275.31
2023-08-17T12:55:36.955Z,98282.06
2023-08-17T12:58:03.572Z,98281.50
2023-08-17T13:00:30.206Z,98279.44
2023-08-17T13:02:56.696Z,98271.75
2023-08-17T13:05:23.384Z,98271.50
2023-08-17T13:07:49.880Z,98260.69
2023-08-17T13:10:16.374Z,98252.44
2023-08-17T13:12:42.837Z,98243.50
2023-08-17T13:15:09.431Z,98238.53
2023-08-17T13:17:35.911Z,98244.84
2023-08-17T13:20:04.915Z,98239.75
2023-08-17T13:22:32.445Z,98234.06
2023-08-17T13:24:58.988Z,98216.66
2023-08-17T13:27:25.615Z,98210.78
2023-08-17T13:29:52.212Z,98218.81
2023-08-17T13:32:18.631Z,98212.66
2023-08-17T13:34:45.176Z,98209.19
2023-08-17T13:37:11.653Z,98206.72
2023-08-17T13:39:38.209Z,98204.66
2023-08-17T13:42:04.937Z,98190.84
2023-08-17T13:44:31.559Z,98200.44
2023-08-17T13:46:58.013Z,98194.75
2023-08-17T13:49:24.766Z,98195.78
2023-08-17T13:51:51.293Z,98189.53
2023-08-17T13:54:18.362Z,98193.94
2023-08-17T13:56:44.843Z,98192.50
2023-08-17T13:59:11.461Z,98186.91
2023-08-17T14:01:37.955Z,98194.47
2023-08-17T14:04:05.975Z,98194.84
2023-08-17T14:06:33.575Z,98194.66
2023-08-17T14:09:00.193Z,98186.03
2023-08-17T14:11:26.663Z,98182.53
2023-08-17T14:13:53.164Z,98173.16
2023-08-17T14:16:19.721Z,98180.44
2023-08-17T14:18:46.241Z,98174.72
2023-08-17T14:21:12.676Z,98184.94
2023-08-17T14:23:39.961Z,98183.38
2023-08-17T14:26:06.474Z,98185.19
2023-08-17T14:28:33.192Z,98184.47
2023-08-17T14:30:59.734Z,98186.59
2023-08-17T14:33:26.202Z,98182.66
2023-08-17T14:35:52.780Z,98179.41
2023-08-17T14:38:19.278Z,98186.09
2023-08-17T14:40:49.073Z,98186.38
2023-08-17T14:43:16.413Z,98183.06
2023-08-17T14:45:44.357Z,98184.22
2023-08-17T14:48:11.237Z,98173.09
2023-08-17T14:50:38.378Z,98172.72
2023-08-17T14:53:08.749Z,98172.75
2023-08-17T14:55:35.813Z,98169.44
2023-08-17T14:58:04.138Z,98162.06
2023-08-17T15:00:33.753Z,98149.53
2023-08-17T15:03:01.413Z,98160.34
2023-08-17T15:05:29.610Z,98153.94
2023-08-17T15:07:56.569Z,98148.94
2023-08-17T15:10:23.377Z,98148.78
2023-08-17T15:12:50.115Z,98145.25
2023-08-17T15:15:20.641Z,98140.22
2023-08-17T15:17:47.610Z,98139.63
2023-08-17T15:20:14.438Z,98139.81
2023-08-17T15:22:41.040Z,98123.28
2023-08-17T15:25:07.850Z,98128.88
2023-08-17T15:27:34.384Z,98119.88
2023-08-17T15:30:00.981Z,98118.75
2023-08-17T15:32:27.751Z,98118.22
2023-08-17T15:34:56.896Z,98105.59
2023-08-17T15:37:26.599Z,98106.22
2023-08-17T15:39:53.618Z,98089.22
2023-08-17T15:42:20.077Z,98099.81
2023-08-17T15:44:46.596Z,98096.13
2023-08-17T15:47:13.057Z,98096.28
2023-08-17T15:49:39.632Z,98092.25
2023-08-17T15:52:07.276Z,98082.47
2023-08-17T15:54:36.755Z,98082.63
2023-08-17T15:57:05.438Z,98083.25
2023-08-17T15:59:32.108Z,98089.03
2023-08-17T16:01:58.685Z,98093.84
2023-08-17T16:04:25.157Z,98102.84
2023-08-17T16:06:51.750Z,98108.94
2023-08-17T16:09:18.409Z,98116.50
2023-08-17T16:11:44.899Z,98114.63
2023-08-17T16:14:11.552Z,98121.31
2023-08-17T16:16:38.072Z,98123.72
2023-08-17T16:19:05.720Z,98123.75
2023-08-17T16:21:32.470Z,98120.84
2023-08-17T16:23:58.948Z,98116.19
2023-08-17T16:26:25.447Z,98114.13
2023-08-17T16:28:53.375Z,98114.94
2023-08-17T16:31:20.193Z,98109.13
2023-08-17T16:33:47.066Z,98113.13
2023-08-17T16:36:14.785Z,98111.03
2023-08-17T16:38:41.333Z,98117.16
2023-08-17T16:41:08.851Z,98110.41
2023-08-17T16:43:36.405Z,98127.44
2023-08-17T16:46:03.028Z,98121.50
2023-08-17T16:48:29.569Z,98130.78
2023-08-17T16:50:56.147Z,98130.78
2023-08-17T16:53:22.631Z,98134.44
2023-08-17T16:55:55.079Z,98126.72
2023-08-17T16:58:22.241Z,98127.53
2023-08-17T17:00:49.934Z,98123.94
2023-08-17T17:03:16.433Z,98129.66
2023-08-17T17:05:42.952Z,98120.34
2023-08-17T17:08:09.550Z,98132.53
2023-08-17T17:10:36.312Z,98128.16
2023-08-17T17:13:02.850Z,98137.72
2023-08-17T17:15:29.432Z,98133.91
2023-08-17T17:17:55.992Z,98126.53
2023-08-17T17:20:22.472Z,98137.63
2023-08-17T17:22:49.136Z,98135.03
2023-08-17T17:25:15.684Z,98132.13
2023-08-17T17:27:42.167Z,98141.09
2023-08-17T17:30:09.174Z,98137.25
2023-08-17T17:32:35.704Z,98141.09
2023-08-17T17:35:02.254Z,98128.09
2023-08-17T17:37:29.161Z,98126.28
2023-08-17T17:39:56.438Z,98129.50
2023-08-17T17:42:23.221Z,98120.31
2023-08-17T17:44:49.746Z,98135.06
2023-08-17T17:47:16.282Z,98131.41
2023-08-17T17:49:42.815Z,98130.16
2023-08-17T17:52:09.303Z,98128.56
2023-08-17T17:54:38.400Z,98145.97
2023-08-17T17:57:05.474Z,98145.97
2023-08-17T17:59:32.059Z,98148.38
2023-08-17T18:01:58.712Z,98159.69
2023-08-17T18:04:26.061Z,98159.44
2023-08-17T18:06:52.608Z,98167.66
2023-08-17T18:09:19.177Z,98163.22
2023-08-17T18:11:45.679Z,98164.00
2023-08-17T18:14:12.179Z,98166.00
2023-08-17T18:16:38.667Z,98165.50
2023-08-17T18:19:07.226Z,98166.59
2023-08-17T18:21:33.717Z,98171.81
2023-08-17T18:24:00.519Z,98171.81
2023-08-17T18:26:27.972Z,98170.34
2023-08-17T18:28:56.587Z,98168.47
2023-08-17T18:31:23.181Z,98164.00
2023-08-17T18:33:49.742Z,98177.00
2023-08-17T18:36:16.706Z,98175.28
2023-08-17T18:38:43.295Z,98176.88
2023-08-17T18:41:10.673Z,98178.13
2023-08-17T18:43:37.690Z,98183.94
2023-08-17T18:46:04.900Z,98180.59
2023-08-17T18:48:32.093Z,98169.09
2023-08-17T18:50:58.843Z,98183.03
2023-08-17T18:53:25.635Z,98180.38
2023-08-17T18:55:52.325Z,98173.22
2023-08-17T18:58:19.799Z,98176.34
2023-08-17T19:00:46.534Z,98167.66
2023-08-17T19:03:13.149Z,98172.41
2023-08-17T19:05:40.466Z,98177.94
2023-08-17T19:08:07.131Z,98176.75
2023-08-17T19:10:33.687Z,98175.72
2023-08-17T19:13:00.329Z,98177.53
2023-08-17T19:15:27.017Z,98174.28
2023-08-17T19:17:53.541Z,98173.50
2023-08-17T19:20:21.217Z,98176.28
2023-08-17T19:22:47.815Z,98174.88
2023-08-17T19:25:14.480Z,98181.09
2023-08-17T19:27:41.452Z,98184.41
2023-08-17T19:30:11.509Z,98177.63
2023-08-17T19:32:43.921Z,98190.41
2023-08-17T19:35:10.950Z,98188.06
2023-08-17T19:37:38.291Z,98190.13
2023-08-17T19:40:05.505Z,98199.56
2023-08-17T19:42:32.105Z,98189.31
2023-08-17T19:44:58.857Z,98194.59
2023-08-17T19:47:25.469Z,98189.94
2023-08-17T19:49:52.193Z,98185.13
2023-08-17T19:52:20.977Z,98197.00
2023-08-17T19:54:52.716Z,98195.09
2023-08-17T19:57:22.021Z,98191.50
2023-08-17T19:59:48.832Z,98197.09
2023-08-17T20:02:15.418Z,98202.44
2023-08-17T20:04:42.121Z,98201.63
2023-08-17T20:07:08.737Z,98198.44
2023-08-17T20:09:35.277Z,98216.63
2023-08-17T20:12:02.598Z,98207.19
2023-08-17T20:14:30.255Z,98204.88
2023-08-17T20:16:57.012Z,98203.78
2023-08-17T20:19:23.597Z,98211.63
2023-08-17T20:21:50.146Z,98206.19
2023-08-17T20:24:16.717Z,98201.41
2023-08-17T20:26:43.347Z,98201.22
2023-08-17T20:29:12.188Z,98205.34
2023-08-17T20:31:39.477Z,98204.44
2023-08-17T20:34:06.114Z,98202.91
2023-08-17T20:36:32.748Z,98212.38
2023-08-17T20:39:07.777Z,98199.28
2023-08-17T20:41:34.329Z,98209.22
2023-08-17T20:44:00.816Z,98213.56
2023-08-17T20:46:28.822Z,98212.03
2023-08-17T20:48:58.693Z,98205.66
2023-08-17T20:51:26.780Z,98220.16
2023-08-17T20:53:54.235Z,98212.91
2023-08-17T20:56:21.783Z,98217.09
2023-08-17T20:58:48.562Z,98207.41
2023-08-17T21:01:17.324Z,98210.63
2023-08-17T21:03:44.451Z,98207.91
2023-08-17T21:06:11.185Z,98212.84
2023-08-17T21:08:37.848Z,98218.00
2023-08-17T21:11:05.796Z,98214.63
2023-08-17T21:13:36.303Z,98217.41
2023-08-17T21:16:12.181Z,98205.34
2023-08-17T21:18:38.768Z,98209.78
2023-08-17T21:21:05.261Z,98205.75
2023-08-17T21:23:32.246Z,98195.97
2023-08-17T21:26:02.161Z,98198.91
2023-08-17T21:28:29.794Z,98201.31
2023-08-17T21:31:03.857Z,98193.06
2023-08-17T21:33:31.104Z,98195.22
2023-08-17T21:35:58.913Z,98194.25
2023-08-17T21:38:25.867Z,98190.56
2023-08-17T21:40:59.683Z,98190.50
2023-08-17T21:43:26.859Z,98197.50
2023-08-17T21:45:57.589Z,98189.94
2023-08-17T21:48:24.340Z,98189.09
2023-08-17T21:50:51.130Z,98182.13
2023-08-17T21:53:21.283Z,98182.38
2023-08-17T21:55:49.090Z,98180.44
2023-08-17T21:58:16.101Z,98180.75
2023-08-17T22:00:43.442Z,98181.97
2023-08-17T22:03:11.218Z,98182.19
2023-08-17T22:05:38.275Z,98177.72
2023-08-17T22:08:05.409Z,98175.03
2023-08-17T22:10:32.223Z,98165.88
2023-08-17T22:12:59.764Z,98182.75
2023-08-17T22:15:26.575Z,98178.03
2023-08-17T22:17:53.172Z,98167.25
2023-08-17T22:20:19.995Z,98185.03
2023-08-17T22:22:46.768Z,98178.34
2023-08-17T22:25:13.285Z,98186.53
2023-08-17T22:27:40.061Z,98171.91
2023-08-17T22:30:07.193Z,98185.28
2023-08-17T22:32:33.768Z,98172.09
2023-08-17T22:35:00.394Z,98172.31
2023-08-17T22:37:27.112Z,98178.81
2023-08-17T22:39:53.854Z,98171.44
2023-08-17T22:42:20.375Z,98175.09
2023-08-17T22:44:48.067Z,98182.09
2023-08-17T22:47:14.592Z,98172.13
2023-08-17T22:49:41.087Z,98169.69
2023-08-17T22:52:07.582Z,98175.16
2023-08-17T22:54:34.224Z,98173.63
2023-08-17T22:57:03.081Z,98167.91
2023-08-17T22:59:29.594Z,98178.56
2023-08-17T23:01:56.212Z,98171.44
2023-08-17T23:04:22.784Z,98168.22
2023-08-17T23:06:49.613Z,98168.44
2023-08-17T23:09:16.106Z,98165.63
2023-08-17T23:11:42.746Z,98178.72
2023-08-17T23:14:09.198Z,98159.78
2023-08-17T23:16:35.710Z,98153.91
2023-08-17T23:19:02.234Z,98158.72
2023-08-17T23:21:28.708Z,98161.84
2023-08-17T23:23:55.194Z,98161.28
2023-08-17T23:26:22.441Z,98162.88
2023-08-17T23:28:49.041Z,98151.94
2023-08-17T23:31:15.644Z,98156.78
2023-08-17T23:33:42.128Z,98151.97
2023-08-17T23:36:08.724Z,98172.38
2023-08-17T23:38:35.235Z,98171.88
2023-08-17T23:41:01.868Z,98169.09
2023-08-17T23:43:28.338Z,98154.44
2023-08-17T23:45:54.873Z,98156.56
2023-08-17T23:48:21.395Z,98149.31
2023-08-17T23:50:47.928Z,98162.56
2023-08-17T23:53:14.448Z,98145.31
2023-08-17T23:55:40.992Z,98156.13
2023-08-17T23:58:07.454Z,98144.44
